Perwez, Belgium
Current Conditions -  °F | °C
As of 5:19 PM on Thursday 27 Nov 2014 (Local Time) from EBBE Reporting Station
Overcast Overcast  
Wind Chill: 46°   Ceiling: 2000
Heat Index: 48°   Visibility: 4mi
Dew Point: 48°   Wind: 5mph
Humidity: 100%   Direction: 100°E
Pressure: 29.68"   Gusts: NA
Location:  50.62°N, 4.81°E
Report Text: EBBE 271619Z AUTO 10004KT 6000 SCT013/// BKN020/// OVC028/// 09/09 Q1005 GRN
Loading
Personal Weather Stations






























Interactive Weather Map New forecast layout! Learn more

10-Day Weather Forecast

Advertisements
Track Severe Weather on mobile